Aérodrome :
LOGIN :

S'inscrire | Disclaimer

   EN    FR    IT 

 










Légende :    VFR   VFR Marginal   IFR   IFR Intensif   IFR Très Intensif
Visi : 
Plafond : 
>= 8 km
>= 3000ft
5 à 8 km
1000 à 3000 ft
1500m à 5 km
500 à 1000 ft
800 à 1500m
200 à 500 ft
< 800m
< 200 ft
Symboles :   Orages  Brouillard  Fortes neiges  Fortes précipitations  Vent > 20 kt
SIGMETs :   Divers  Orages  Givrage  Turbulence  Onde Orograph.  Cendres Volcan.







- Altitude de l'aérodrome : 327 ft
- Code IATA : BHX
- Voir les cartes d'approche


EGBB - Birmingham

DERNIER METAR :
  • 250120Z 32011KT 9999 FEW019 SCT030 BKN036 07/03 Q1029

METARs EXPIRÉS :
  • 250050Z 31013KT 9999 OVC020 07/03 Q1029
  • 250020Z 31011KT 9999 SCT021 BKN045 08/03 Q1028
  • 242350Z 31011KT 280V340 9999 BKN018 08/04 Q1029
  • 242320Z 31012KT 9999 SCT019 BKN024 BKN048 08/04 Q1029
  • 242250Z 30011KT 9999 SCT024 08/03 Q1028

TAF TAF EGBB
Valide du 25 à 00h jusqu'au 26 à 00h UTC


242259Z 2500/2524 28012KT 9999 FEW040
BECMG 2509/2512 34006KT
ATIS : +44 121 780 0910
Pas de NOTAMs connus pour ce terrain.
1 SIGMET publié pour la FIR London (EGTT) :
 
Turbulence forte
EGTT SIGMET 01 VALID 250200/250600 EGRR
EGTT LONDON FIR SEV TURB FCST WI N5500 E00500 - N5315 E00330 - N5500 W00040 - N5500 E00500 SFC/FL060 STNR NC=



MET'MAP, la Météo Aéronautique d'un coup d'oeil ! - Copyright ORBIFLY Décembre 2007 - Disclaimer

ORBIFLY MET'MAP TEAM :

Programmation & Développement : Alexandra Zaïnal
Conception & Développement : Baudouin d'Aumeries
Co-Programmation & Développement : Marc-Olivier Méhu
Soutien technique & logistique : Manuel Goepfert

Contact : metmap@orbifly.com




SOURCES & CREDITS :

   NOAA